Terminal Aerodrome Forecast
Issued by NWS Northern Indiana

Home | Current Version | Previous Version | Text Only | Print | Product List | Glossary On
Versions: 1 2 3 4 5 6 7 8 9 10 11 12 13 14 15 16 17 18 19 20 21 22 23 24 25
000
FTUS43 KIWX 270520
TAFFWA
TAF
KFWA 270520Z 2706/2806 08008KT P6SM VCSH OVC025
     FM270800 05007KT 5SM BR BKN012
     FM271500 04006KT P6SM BKN015
     FM272000 02005KT P6SM BKN040=

USA.gov is the U.S. government's official web portal to all federal, state and local government web resources and services.